sensor_id;sensor_type;location;lat;lon;timestamp;P1;durP1;ratioP1;P2;durP2;ratioP2
38264;SDS011;24062;47.480;8.768;2023-04-25T00:02:19;3.37;;;3.07;;
38264;SDS011;24062;47.480;8.768;2023-04-25T00:04:47;4.53;;;4.13;;
38264;SDS011;24062;47.480;8.768;2023-04-25T00:07:14;16.30;;;8.80;;
38264;SDS011;24062;47.480;8.768;2023-04-25T00:09:43;10.73;;;6.70;;
38264;SDS011;24062;47.480;8.768;2023-04-25T00:12:11;17.87;;;8.53;;
38264;SDS011;24062;47.480;8.768;2023-04-25T00:14:37;11.80;;;5.30;;
38264;SDS011;24062;47.480;8.768;2023-04-25T00:17:04;10.70;;;6.47;;
38264;SDS011;24062;47.480;8.768;2023-04-25T00:19:31;23.10;;;11.17;;
38264;SDS011;24062;47.480;8.768;2023-04-25T00:21:59;28.23;;;13.20;;
38264;SDS011;24062;47.480;8.768;2023-04-25T00:24:26;22.07;;;11.77;;
38264;SDS011;24062;47.480;8.768;2023-04-25T00:26:55;12.60;;;7.40;;
38264;SDS011;24062;47.480;8.768;2023-04-25T00:29:22;19.57;;;8.70;;
38264;SDS011;24062;47.480;8.768;2023-04-25T00:31:49;20.50;;;10.17;;
38264;SDS011;24062;47.480;8.768;2023-04-25T00:34:15;13.70;;;7.07;;
38264;SDS011;24062;47.480;8.768;2023-04-25T00:36:42;23.47;;;9.63;;
38264;SDS011;24062;47.480;8.768;2023-04-25T00:39:09;22.03;;;8.90;;
38264;SDS011;24062;47.480;8.768;2023-04-25T00:41:37;24.97;;;9.90;;
38264;SDS011;24062;47.480;8.768;2023-04-25T00:44:08;23.30;;;9.47;;
38264;SDS011;24062;47.480;8.768;2023-04-25T00:46:36;37.63;;;15.13;;
38264;SDS011;24062;47.480;8.768;2023-04-25T00:49:04;29.83;;;11.33;;
38264;SDS011;24062;47.480;8.768;2023-04-25T00:51:31;20.60;;;8.17;;
38264;SDS011;24062;47.480;8.768;2023-04-25T00:53:59;28.43;;;9.30;;
38264;SDS011;24062;47.480;8.768;2023-04-25T00:56:26;35.03;;;13.20;;
38264;SDS011;24062;47.480;8.768;2023-04-25T00:58:53;29.53;;;11.03;;
38264;SDS011;24062;47.480;8.768;2023-04-25T01:01:23;26.23;;;10.00;;
38264;SDS011;24062;47.480;8.768;2023-04-25T01:03:50;19.00;;;8.67;;
38264;SDS011;24062;47.480;8.768;2023-04-25T01:06:17;13.73;;;7.77;;
38264;SDS011;24062;47.480;8.768;2023-04-25T01:08:44;14.53;;;5.47;;
38264;SDS011;24062;47.480;8.768;2023-04-25T01:11:11;8.30;;;4.10;;
38264;SDS011;24062;47.480;8.768;2023-04-25T01:13:38;8.80;;;3.90;;
38264;SDS011;24062;47.480;8.768;2023-04-25T01:16:06;7.07;;;3.43;;
38264;SDS011;24062;47.480;8.768;2023-04-25T01:18:34;6.90;;;2.93;;
38264;SDS011;24062;47.480;8.768;2023-04-25T01:21:06;5.10;;;3.13;;
38264;SDS011;24062;47.480;8.768;2023-04-25T01:23:34;5.40;;;2.77;;
38264;SDS011;24062;47.480;8.768;2023-04-25T01:26:02;3.20;;;2.90;;
38264;SDS011;24062;47.480;8.768;2023-04-25T01:28:29;2.93;;;2.57;;
38264;SDS011;24062;47.480;8.768;2023-04-25T01:30:56;5.13;;;2.90;;
38264;SDS011;24062;47.480;8.768;2023-04-25T01:33:23;5.43;;;2.37;;
38264;SDS011;24062;47.480;8.768;2023-04-25T01:35:50;8.07;;;3.20;;
38264;SDS011;24062;47.480;8.768;2023-04-25T01:38:19;5.13;;;2.90;;
38264;SDS011;24062;47.480;8.768;2023-04-25T01:40:46;4.00;;;2.90;;
38264;SDS011;24062;47.480;8.768;2023-04-25T01:43:14;4.60;;;2.70;;
38264;SDS011;24062;47.480;8.768;2023-04-25T01:45:41;2.57;;;2.37;;
38264;SDS011;24062;47.480;8.768;2023-04-25T01:48:08;6.60;;;2.27;;
38264;SDS011;24062;47.480;8.768;2023-04-25T01:50:36;5.17;;;2.80;;
38264;SDS011;24062;47.480;8.768;2023-04-25T01:53:04;3.80;;;2.70;;
38264;SDS011;24062;47.480;8.768;2023-04-25T01:55:33;5.17;;;2.77;;
38264;SDS011;24062;47.480;8.768;2023-04-25T01:58:00;3.70;;;2.70;;
38264;SDS011;24062;47.480;8.768;2023-04-25T02:00:28;6.60;;;2.33;;
38264;SDS011;24062;47.480;8.768;2023-04-25T02:02:57;3.90;;;3.00;;
38264;SDS011;24062;47.480;8.768;2023-04-25T02:05:24;5.33;;;3.40;;
38264;SDS011;24062;47.480;8.768;2023-04-25T02:07:51;3.97;;;2.57;;
38264;SDS011;24062;47.480;8.768;2023-04-25T02:10:18;3.03;;;2.47;;
38264;SDS011;24062;47.480;8.768;2023-04-25T02:12:46;4.93;;;2.00;;
38264;SDS011;24062;47.480;8.768;2023-04-25T02:15:13;10.10;;;2.90;;
38264;SDS011;24062;47.480;8.768;2023-04-25T02:17:40;5.27;;;2.77;;
38264;SDS011;24062;47.480;8.768;2023-04-25T02:20:08;3.43;;;3.00;;
38264;SDS011;24062;47.480;8.768;2023-04-25T02:22:35;6.00;;;2.80;;
38264;SDS011;24062;47.480;8.768;2023-04-25T02:25:02;4.90;;;2.60;;
38264;SDS011;24062;47.480;8.768;2023-04-25T02:27:30;5.37;;;3.40;;
38264;SDS011;24062;47.480;8.768;2023-04-25T02:29:58;7.13;;;2.77;;
38264;SDS011;24062;47.480;8.768;2023-04-25T02:32:25;4.77;;;2.77;;
38264;SDS011;24062;47.480;8.768;2023-04-25T02:34:53;2.80;;;2.07;;
38264;SDS011;24062;47.480;8.768;2023-04-25T02:37:19;4.57;;;3.00;;
38264;SDS011;24062;47.480;8.768;2023-04-25T02:39:46;3.57;;;3.27;;
38264;SDS011;24062;47.480;8.768;2023-04-25T02:42:13;3.17;;;2.87;;
38264;SDS011;24062;47.480;8.768;2023-04-25T02:44:40;4.60;;;3.07;;
38264;SDS011;24062;47.480;8.768;2023-04-25T02:47:09;3.57;;;2.53;;
38264;SDS011;24062;47.480;8.768;2023-04-25T02:49:35;4.83;;;3.13;;
38264;SDS011;24062;47.480;8.768;2023-04-25T02:52:02;2.73;;;2.40;;
38264;SDS011;24062;47.480;8.768;2023-04-25T02:54:29;3.47;;;3.07;;
38264;SDS011;24062;47.480;8.768;2023-04-25T02:56:56;4.13;;;3.23;;
38264;SDS011;24062;47.480;8.768;2023-04-25T02:59:23;4.53;;;2.67;;
38264;SDS011;24062;47.480;8.768;2023-04-25T03:01:50;9.33;;;3.30;;
38264;SDS011;24062;47.480;8.768;2023-04-25T03:04:18;4.67;;;3.07;;
38264;SDS011;24062;47.480;8.768;2023-04-25T03:06:46;4.93;;;3.27;;
38264;SDS011;24062;47.480;8.768;2023-04-25T03:09:12;5.97;;;3.00;;
38264;SDS011;24062;47.480;8.768;2023-04-25T03:11:40;3.00;;;2.70;;
38264;SDS011;24062;47.480;8.768;2023-04-25T03:14:06;6.93;;;3.10;;
38264;SDS011;24062;47.480;8.768;2023-04-25T03:16:33;4.07;;;3.33;;
38264;SDS011;24062;47.480;8.768;2023-04-25T03:19:00;3.80;;;3.40;;
38264;SDS011;24062;47.480;8.768;2023-04-25T03:21:29;3.57;;;2.90;;
38264;SDS011;24062;47.480;8.768;2023-04-25T03:23:57;4.23;;;2.93;;
38264;SDS011;24062;47.480;8.768;2023-04-25T03:26:24;5.77;;;3.20;;
38264;SDS011;24062;47.480;8.768;2023-04-25T03:28:51;4.40;;;2.67;;
38264;SDS011;24062;47.480;8.768;2023-04-25T03:31:18;7.07;;;3.20;;
38264;SDS011;24062;47.480;8.768;2023-04-25T03:33:45;3.77;;;2.80;;
38264;SDS011;24062;47.480;8.768;2023-04-25T03:36:12;4.90;;;2.90;;
38264;SDS011;24062;47.480;8.768;2023-04-25T03:38:40;6.10;;;3.73;;
38264;SDS011;24062;47.480;8.768;2023-04-25T03:41:07;3.50;;;3.00;;
38264;SDS011;24062;47.480;8.768;2023-04-25T03:43:34;4.20;;;3.50;;
38264;SDS011;24062;47.480;8.768;2023-04-25T03:46:01;3.30;;;3.00;;
38264;SDS011;24062;47.480;8.768;2023-04-25T03:48:28;5.57;;;3.17;;
38264;SDS011;24062;47.480;8.768;2023-04-25T03:50:55;4.33;;;2.97;;
38264;SDS011;24062;47.480;8.768;2023-04-25T03:53:22;5.47;;;2.83;;
38264;SDS011;24062;47.480;8.768;2023-04-25T03:55:50;4.50;;;3.30;;
38264;SDS011;24062;47.480;8.768;2023-04-25T03:58:18;6.27;;;3.13;;
38264;SDS011;24062;47.480;8.768;2023-04-25T04:00:45;4.90;;;3.33;;
38264;SDS011;24062;47.480;8.768;2023-04-25T04:03:12;3.50;;;3.20;;
38264;SDS011;24062;47.480;8.768;2023-04-25T04:05:39;4.73;;;3.60;;
38264;SDS011;24062;47.480;8.768;2023-04-25T04:08:06;3.87;;;2.73;;
38264;SDS011;24062;47.480;8.768;2023-04-25T04:10:33;3.20;;;2.90;;
38264;SDS011;24062;47.480;8.768;2023-04-25T04:13:01;3.67;;;2.87;;
38264;SDS011;24062;47.480;8.768;2023-04-25T04:15:29;6.63;;;3.53;;
38264;SDS011;24062;47.480;8.768;2023-04-25T04:17:58;6.70;;;3.07;;
38264;SDS011;24062;47.480;8.768;2023-04-25T04:20:27;3.47;;;2.97;;
38264;SDS011;24062;47.480;8.768;2023-04-25T04:22:55;4.37;;;3.70;;
38264;SDS011;24062;47.480;8.768;2023-04-25T04:25:22;5.30;;;2.93;;
38264;SDS011;24062;47.480;8.768;2023-04-25T04:27:49;7.83;;;3.10;;
38264;SDS011;24062;47.480;8.768;2023-04-25T04:30:20;5.00;;;3.60;;
38264;SDS011;24062;47.480;8.768;2023-04-25T04:32:49;6.53;;;3.50;;
38264;SDS011;24062;47.480;8.768;2023-04-25T04:35:16;7.13;;;3.53;;
38264;SDS011;24062;47.480;8.768;2023-04-25T04:37:43;3.43;;;3.13;;
38264;SDS011;24062;47.480;8.768;2023-04-25T04:40:10;4.67;;;2.97;;
38264;SDS011;24062;47.480;8.768;2023-04-25T04:42:40;7.73;;;3.53;;
38264;SDS011;24062;47.480;8.768;2023-04-25T04:45:07;7.17;;;3.33;;
38264;SDS011;24062;47.480;8.768;2023-04-25T04:47:37;5.37;;;3.53;;
38264;SDS011;24062;47.480;8.768;2023-04-25T04:50:05;3.93;;;3.37;;
38264;SDS011;24062;47.480;8.768;2023-04-25T04:52:33;4.33;;;3.40;;
38264;SDS011;24062;47.480;8.768;2023-04-25T04:55:01;3.60;;;3.07;;
38264;SDS011;24062;47.480;8.768;2023-04-25T04:57:28;3.40;;;3.10;;
38264;SDS011;24062;47.480;8.768;2023-04-25T04:59:56;4.50;;;3.90;;
38264;SDS011;24062;47.480;8.768;2023-04-25T05:02:23;3.60;;;2.87;;
38264;SDS011;24062;47.480;8.768;2023-04-25T05:04:51;5.10;;;2.97;;
38264;SDS011;24062;47.480;8.768;2023-04-25T05:07:18;5.00;;;3.17;;
38264;SDS011;24062;47.480;8.768;2023-04-25T05:09:46;4.03;;;2.80;;
38264;SDS011;24062;47.480;8.768;2023-04-25T05:12:13;3.83;;;2.87;;
38264;SDS011;24062;47.480;8.768;2023-04-25T05:14:39;4.00;;;3.47;;
38264;SDS011;24062;47.480;8.768;2023-04-25T05:17:06;8.83;;;3.70;;
38264;SDS011;24062;47.480;8.768;2023-04-25T05:19:34;3.63;;;3.00;;
38264;SDS011;24062;47.480;8.768;2023-04-25T05:22:02;4.83;;;3.73;;
38264;SDS011;24062;47.480;8.768;2023-04-25T05:24:29;2.67;;;2.47;;
38264;SDS011;24062;47.480;8.768;2023-04-25T05:26:56;3.30;;;3.00;;
38264;SDS011;24062;47.480;8.768;2023-04-25T05:29:23;4.17;;;2.87;;
38264;SDS011;24062;47.480;8.768;2023-04-25T05:31:50;4.90;;;2.87;;
38264;SDS011;24062;47.480;8.768;2023-04-25T05:34:18;10.73;;;2.90;;
38264;SDS011;24062;47.480;8.768;2023-04-25T05:36:45;4.30;;;2.97;;
38264;SDS011;24062;47.480;8.768;2023-04-25T05:39:14;2.90;;;2.70;;
38264;SDS011;24062;47.480;8.768;2023-04-25T05:41:42;4.60;;;2.50;;
38264;SDS011;24062;47.480;8.768;2023-04-25T05:44:09;5.43;;;2.63;;
38264;SDS011;24062;47.480;8.768;2023-04-25T05:46:36;4.23;;;2.77;;
38264;SDS011;24062;47.480;8.768;2023-04-25T05:49:03;4.57;;;3.23;;
38264;SDS011;24062;47.480;8.768;2023-04-25T05:51:30;5.77;;;2.63;;
38264;SDS011;24062;47.480;8.768;2023-04-25T05:53:57;4.63;;;2.33;;
38264;SDS011;24062;47.480;8.768;2023-04-25T05:56:26;2.97;;;2.50;;
38264;SDS011;24062;47.480;8.768;2023-04-25T05:58:52;3.03;;;2.30;;
38264;SDS011;24062;47.480;8.768;2023-04-25T06:01:20;3.43;;;2.43;;
38264;SDS011;24062;47.480;8.768;2023-04-25T06:03:47;4.63;;;2.27;;
38264;SDS011;24062;47.480;8.768;2023-04-25T06:06:16;5.13;;;2.47;;
38264;SDS011;24062;47.480;8.768;2023-04-25T06:08:43;6.97;;;2.33;;
38264;SDS011;24062;47.480;8.768;2023-04-25T06:11:10;6.13;;;2.40;;
38264;SDS011;24062;47.480;8.768;2023-04-25T06:13:38;2.77;;;2.07;;
38264;SDS011;24062;47.480;8.768;2023-04-25T06:16:06;2.37;;;1.57;;
38264;SDS011;24062;47.480;8.768;2023-04-25T06:18:33;7.17;;;2.07;;
38264;SDS011;24062;47.480;8.768;2023-04-25T06:21:00;5.27;;;1.83;;
38264;SDS011;24062;47.480;8.768;2023-04-25T06:23:27;5.43;;;1.90;;
38264;SDS011;24062;47.480;8.768;2023-04-25T06:25:54;6.03;;;1.60;;
38264;SDS011;24062;47.480;8.768;2023-04-25T06:28:21;5.03;;;1.37;;
38264;SDS011;24062;47.480;8.768;2023-04-25T06:30:50;5.10;;;2.00;;
38264;SDS011;24062;47.480;8.768;2023-04-25T06:33:17;2.93;;;2.23;;
38264;SDS011;24062;47.480;8.768;2023-04-25T06:35:45;5.47;;;1.93;;
38264;SDS011;24062;47.480;8.768;2023-04-25T06:38:12;6.40;;;1.43;;
38264;SDS011;24062;47.480;8.768;2023-04-25T06:40:39;2.60;;;1.23;;
38264;SDS011;24062;47.480;8.768;2023-04-25T06:43:05;68.60;;;8.70;;
38264;SDS011;24062;47.480;8.768;2023-04-25T06:45:32;6.33;;;1.70;;
38264;SDS011;24062;47.480;8.768;2023-04-25T06:48:01;4.13;;;1.83;;
38264;SDS011;24062;47.480;8.768;2023-04-25T06:50:28;5.10;;;2.00;;
38264;SDS011;24062;47.480;8.768;2023-04-25T06:52:54;3.13;;;2.30;;
38264;SDS011;24062;47.480;8.768;2023-04-25T06:55:21;7.73;;;2.83;;
38264;SDS011;24062;47.480;8.768;2023-04-25T06:57:48;4.53;;;3.27;;
38264;SDS011;24062;47.480;8.768;2023-04-25T07:00:15;3.77;;;2.50;;
38264;SDS011;24062;47.480;8.768;2023-04-25T07:02:43;5.83;;;3.23;;
38264;SDS011;24062;47.480;8.768;2023-04-25T07:05:11;8.73;;;4.40;;
38264;SDS011;24062;47.480;8.768;2023-04-25T07:07:38;6.43;;;2.87;;
38264;SDS011;24062;47.480;8.768;2023-04-25T07:10:05;3.77;;;3.20;;
38264;SDS011;24062;47.480;8.768;2023-04-25T07:12:32;6.10;;;3.90;;
38264;SDS011;24062;47.480;8.768;2023-04-25T07:14:59;5.50;;;3.87;;
38264;SDS011;24062;47.480;8.768;2023-04-25T07:17:31;4.07;;;3.67;;
38264;SDS011;24062;47.480;8.768;2023-04-25T07:19:58;6.63;;;3.57;;
38264;SDS011;24062;47.480;8.768;2023-04-25T07:22:27;8.70;;;3.80;;
38264;SDS011;24062;47.480;8.768;2023-04-25T07:24:54;6.00;;;2.67;;
38264;SDS011;24062;47.480;8.768;2023-04-25T07:27:21;6.67;;;2.80;;
38264;SDS011;24062;47.480;8.768;2023-04-25T07:29:48;2.60;;;2.10;;
38264;SDS011;24062;47.480;8.768;2023-04-25T07:32:15;6.50;;;2.20;;
38264;SDS011;24062;47.480;8.768;2023-04-25T07:34:42;3.50;;;2.23;;
38264;SDS011;24062;47.480;8.768;2023-04-25T07:37:09;4.20;;;2.10;;
38264;SDS011;24062;47.480;8.768;2023-04-25T07:39:37;3.80;;;1.73;;
38264;SDS011;24062;47.480;8.768;2023-04-25T07:42:04;3.43;;;1.47;;
38264;SDS011;24062;47.480;8.768;2023-04-25T07:44:33;2.27;;;1.00;;
38264;SDS011;24062;47.480;8.768;2023-04-25T07:47:03;2.23;;;1.13;;
38264;SDS011;24062;47.480;8.768;2023-04-25T07:49:32;3.53;;;1.80;;
38264;SDS011;24062;47.480;8.768;2023-04-25T07:51:59;5.13;;;2.13;;
38264;SDS011;24062;47.480;8.768;2023-04-25T07:54:26;2.20;;;1.60;;
38264;SDS011;24062;47.480;8.768;2023-04-25T07:56:55;3.60;;;1.03;;
38264;SDS011;24062;47.480;8.768;2023-04-25T07:59:22;3.13;;;1.47;;
38264;SDS011;24062;47.480;8.768;2023-04-25T08:01:49;2.70;;;1.60;;
38264;SDS011;24062;47.480;8.768;2023-04-25T08:04:16;2.33;;;1.23;;
38264;SDS011;24062;47.480;8.768;2023-04-25T08:06:43;1.67;;;1.20;;
38264;SDS011;24062;47.480;8.768;2023-04-25T08:09:10;2.37;;;1.00;;
38264;SDS011;24062;47.480;8.768;2023-04-25T08:11:37;2.20;;;1.17;;
38264;SDS011;24062;47.480;8.768;2023-04-25T08:14:06;3.80;;;1.57;;
38264;SDS011;24062;47.480;8.768;2023-04-25T08:16:33;4.63;;;1.30;;
38264;SDS011;24062;47.480;8.768;2023-04-25T08:19:00;1.83;;;0.97;;
38264;SDS011;24062;47.480;8.768;2023-04-25T08:21:27;2.27;;;1.00;;
38264;SDS011;24062;47.480;8.768;2023-04-25T08:23:54;1.50;;;0.93;;
38264;SDS011;24062;47.480;8.768;2023-04-25T08:26:21;2.80;;;1.57;;
38264;SDS011;24062;47.480;8.768;2023-04-25T08:28:48;2.90;;;1.63;;
38264;SDS011;24062;47.480;8.768;2023-04-25T08:31:16;1.90;;;1.20;;
38264;SDS011;24062;47.480;8.768;2023-04-25T08:33:43;1.43;;;0.93;;
38264;SDS011;24062;47.480;8.768;2023-04-25T08:36:10;2.50;;;1.80;;
38264;SDS011;24062;47.480;8.768;2023-04-25T08:38:37;4.07;;;1.60;;
38264;SDS011;24062;47.480;8.768;2023-04-25T08:41:04;2.60;;;1.70;;
38264;SDS011;24062;47.480;8.768;2023-04-25T08:43:32;2.23;;;1.40;;
38264;SDS011;24062;47.480;8.768;2023-04-25T08:46:00;2.20;;;1.40;;
38264;SDS011;24062;47.480;8.768;2023-04-25T08:48:30;3.07;;;1.00;;
38264;SDS011;24062;47.480;8.768;2023-04-25T08:50:59;2.07;;;1.13;;
38264;SDS011;24062;47.480;8.768;2023-04-25T08:53:29;3.03;;;1.57;;
38264;SDS011;24062;47.480;8.768;2023-04-25T08:55:59;1.70;;;1.17;;
38264;SDS011;24062;47.480;8.768;2023-04-25T08:58:27;5.10;;;1.30;;
38264;SDS011;24062;47.480;8.768;2023-04-25T09:00:54;3.10;;;1.30;;
38264;SDS011;24062;47.480;8.768;2023-04-25T09:03:21;2.10;;;1.20;;
38264;SDS011;24062;47.480;8.768;2023-04-25T09:05:50;2.03;;;1.10;;
38264;SDS011;24062;47.480;8.768;2023-04-25T09:08:17;2.63;;;1.00;;
38264;SDS011;24062;47.480;8.768;2023-04-25T09:10:44;1.80;;;1.20;;
38264;SDS011;24062;47.480;8.768;2023-04-25T09:13:12;1.83;;;1.23;;
38264;SDS011;24062;47.480;8.768;2023-04-25T09:15:49;1.93;;;1.27;;
38264;SDS011;24062;47.480;8.768;2023-04-25T09:18:23;2.80;;;1.33;;
38264;SDS011;24062;47.480;8.768;2023-04-25T09:20:53;1.87;;;1.23;;
38264;SDS011;24062;47.480;8.768;2023-04-25T09:23:21;3.20;;;1.43;;
38264;SDS011;24062;47.480;8.768;2023-04-25T09:25:48;3.40;;;1.40;;
38264;SDS011;24062;47.480;8.768;2023-04-25T09:28:16;2.20;;;1.80;;
38264;SDS011;24062;47.480;8.768;2023-04-25T09:30:53;2.07;;;1.00;;
38264;SDS011;24062;47.480;8.768;2023-04-25T09:33:21;2.53;;;1.30;;
38264;SDS011;24062;47.480;8.768;2023-04-25T09:35:56;1.93;;;1.03;;
38264;SDS011;24062;47.480;8.768;2023-04-25T09:38:28;4.67;;;1.50;;
38264;SDS011;24062;47.480;8.768;2023-04-25T09:40:56;1.60;;;1.00;;
38264;SDS011;24062;47.480;8.768;2023-04-25T09:43:24;1.60;;;1.20;;
38264;SDS011;24062;47.480;8.768;2023-04-25T09:45:53;1.50;;;0.90;;
38264;SDS011;24062;47.480;8.768;2023-04-25T09:48:22;1.60;;;1.00;;
38264;SDS011;24062;47.480;8.768;2023-04-25T09:51:04;1.50;;;0.90;;
38264;SDS011;24062;47.480;8.768;2023-04-25T09:53:32;1.10;;;0.70;;
38264;SDS011;24062;47.480;8.768;2023-04-25T09:56:00;1.70;;;1.10;;
38264;SDS011;24062;47.480;8.768;2023-04-25T09:58:31;1.40;;;0.97;;
38264;SDS011;24062;47.480;8.768;2023-04-25T10:00:59;1.50;;;0.70;;
38264;SDS011;24062;47.480;8.768;2023-04-25T10:03:28;2.53;;;1.00;;
38264;SDS011;24062;47.480;8.768;2023-04-25T10:05:57;2.93;;;1.30;;
38264;SDS011;24062;47.480;8.768;2023-04-25T10:08:30;6.83;;;1.10;;
38264;SDS011;24062;47.480;8.768;2023-04-25T10:11:00;2.33;;;0.70;;
38264;SDS011;24062;47.480;8.768;2023-04-25T10:13:29;1.50;;;0.90;;
38264;SDS011;24062;47.480;8.768;2023-04-25T10:15:57;1.20;;;0.60;;
38264;SDS011;24062;47.480;8.768;2023-04-25T10:18:24;1.40;;;0.80;;
38264;SDS011;24062;47.480;8.768;2023-04-25T10:20:53;1.20;;;0.60;;
38264;SDS011;24062;47.480;8.768;2023-04-25T10:23:21;1.30;;;0.70;;
38264;SDS011;24062;47.480;8.768;2023-04-25T10:25:50;1.70;;;0.67;;
38264;SDS011;24062;47.480;8.768;2023-04-25T10:28:18;1.30;;;0.80;;
38264;SDS011;24062;47.480;8.768;2023-04-25T10:30:58;1.23;;;0.67;;
38264;SDS011;24062;47.480;8.768;2023-04-25T10:33:29;1.30;;;0.67;;
38264;SDS011;24062;47.480;8.768;2023-04-25T10:36:08;1.60;;;0.60;;
38264;SDS011;24062;47.480;8.768;2023-04-25T10:38:39;1.50;;;0.73;;
38264;SDS011;24062;47.480;8.768;2023-04-25T10:41:09;1.20;;;0.60;;
38264;SDS011;24062;47.480;8.768;2023-04-25T10:43:38;1.33;;;0.60;;
38264;SDS011;24062;47.480;8.768;2023-04-25T10:46:15;1.50;;;0.70;;
38264;SDS011;24062;47.480;8.768;2023-04-25T10:48:44;2.23;;;0.70;;
38264;SDS011;24062;47.480;8.768;2023-04-25T10:51:21;1.30;;;0.70;;
38264;SDS011;24062;47.480;8.768;2023-04-25T10:53:59;4.13;;;0.70;;
38264;SDS011;24062;47.480;8.768;2023-04-25T10:56:29;1.30;;;0.60;;
38264;SDS011;24062;47.480;8.768;2023-04-25T10:59:04;1.37;;;0.70;;
38264;SDS011;24062;47.480;8.768;2023-04-25T11:01:35;2.07;;;0.90;;
38264;SDS011;24062;47.480;8.768;2023-04-25T11:04:03;1.30;;;0.53;;
38264;SDS011;24062;47.480;8.768;2023-04-25T11:06:33;1.70;;;0.70;;
38264;SDS011;24062;47.480;8.768;2023-04-25T11:09:09;1.20;;;0.57;;
38264;SDS011;24062;47.480;8.768;2023-04-25T11:11:40;1.50;;;0.87;;
38264;SDS011;24062;47.480;8.768;2023-04-25T11:14:07;1.20;;;0.53;;
38264;SDS011;24062;47.480;8.768;2023-04-25T11:16:34;1.27;;;0.70;;
38264;SDS011;24062;47.480;8.768;2023-04-25T11:19:01;1.20;;;0.60;;
38264;SDS011;24062;47.480;8.768;2023-04-25T11:21:28;1.57;;;0.73;;
38264;SDS011;24062;47.480;8.768;2023-04-25T11:23:56;1.37;;;0.60;;
38264;SDS011;24062;47.480;8.768;2023-04-25T11:26:24;1.47;;;0.90;;
38264;SDS011;24062;47.480;8.768;2023-04-25T11:28:55;1.40;;;0.60;;
38264;SDS011;24062;47.480;8.768;2023-04-25T11:31:24;1.57;;;0.70;;
38264;SDS011;24062;47.480;8.768;2023-04-25T11:33:52;1.40;;;0.70;;
38264;SDS011;24062;47.480;8.768;2023-04-25T11:36:20;1.47;;;0.80;;
38264;SDS011;24062;47.480;8.768;2023-04-25T11:38:48;1.40;;;0.63;;
38264;SDS011;24062;47.480;8.768;2023-04-25T11:41:16;1.70;;;0.97;;
38264;SDS011;24062;47.480;8.768;2023-04-25T11:43:43;3.10;;;0.90;;
38264;SDS011;24062;47.480;8.768;2023-04-25T11:46:12;3.10;;;0.70;;
38264;SDS011;24062;47.480;8.768;2023-04-25T11:48:39;3.77;;;1.03;;
38264;SDS011;24062;47.480;8.768;2023-04-25T11:51:06;1.57;;;0.90;;
38264;SDS011;24062;47.480;8.768;2023-04-25T11:53:33;1.30;;;0.70;;
38264;SDS011;24062;47.480;8.768;2023-04-25T11:56:00;2.87;;;0.60;;
38264;SDS011;24062;47.480;8.768;2023-04-25T11:58:27;3.43;;;0.97;;
38264;SDS011;24062;47.480;8.768;2023-04-25T12:00:55;3.27;;;1.07;;
38264;SDS011;24062;47.480;8.768;2023-04-25T12:03:25;1.50;;;0.77;;
38264;SDS011;24062;47.480;8.768;2023-04-25T12:06:01;2.10;;;1.00;;
38264;SDS011;24062;47.480;8.768;2023-04-25T12:08:30;1.70;;;0.70;;
38264;SDS011;24062;47.480;8.768;2023-04-25T12:10:57;1.37;;;0.50;;
38264;SDS011;24062;47.480;8.768;2023-04-25T12:13:25;3.63;;;0.70;;
38264;SDS011;24062;47.480;8.768;2023-04-25T12:15:53;1.73;;;1.00;;
38264;SDS011;24062;47.480;8.768;2023-04-25T12:18:22;1.47;;;0.80;;
38264;SDS011;24062;47.480;8.768;2023-04-25T12:20:53;1.30;;;0.80;;
38264;SDS011;24062;47.480;8.768;2023-04-25T12:23:24;1.50;;;0.77;;
38264;SDS011;24062;47.480;8.768;2023-04-25T12:25:53;2.00;;;0.70;;
38264;SDS011;24062;47.480;8.768;2023-04-25T12:28:21;1.47;;;0.57;;
38264;SDS011;24062;47.480;8.768;2023-04-25T12:30:52;1.40;;;0.70;;
38264;SDS011;24062;47.480;8.768;2023-04-25T12:33:20;6.67;;;0.80;;
38264;SDS011;24062;47.480;8.768;2023-04-25T12:35:47;1.40;;;0.70;;
38264;SDS011;24062;47.480;8.768;2023-04-25T12:38:21;1.50;;;0.80;;
38264;SDS011;24062;47.480;8.768;2023-04-25T12:40:49;1.53;;;0.70;;
38264;SDS011;24062;47.480;8.768;2023-04-25T12:43:16;1.63;;;0.77;;
38264;SDS011;24062;47.480;8.768;2023-04-25T12:45:43;1.20;;;0.60;;
38264;SDS011;24062;47.480;8.768;2023-04-25T12:48:10;1.50;;;0.80;;
38264;SDS011;24062;47.480;8.768;2023-04-25T12:50:37;1.83;;;0.70;;
38264;SDS011;24062;47.480;8.768;2023-04-25T12:53:04;1.57;;;0.83;;
38264;SDS011;24062;47.480;8.768;2023-04-25T12:55:32;1.47;;;0.70;;
38264;SDS011;24062;47.480;8.768;2023-04-25T12:58:00;1.60;;;0.70;;
38264;SDS011;24062;47.480;8.768;2023-04-25T13:00:28;1.70;;;0.50;;
38264;SDS011;24062;47.480;8.768;2023-04-25T13:02:55;1.30;;;0.60;;
38264;SDS011;24062;47.480;8.768;2023-04-25T13:05:22;1.87;;;1.10;;
38264;SDS011;24062;47.480;8.768;2023-04-25T13:07:49;2.10;;;0.73;;
38264;SDS011;24062;47.480;8.768;2023-04-25T13:10:16;1.53;;;0.80;;
38264;SDS011;24062;47.480;8.768;2023-04-25T13:12:45;1.40;;;0.90;;
38264;SDS011;24062;47.480;8.768;2023-04-25T13:15:12;3.00;;;0.90;;
38264;SDS011;24062;47.480;8.768;2023-04-25T13:17:40;1.90;;;0.93;;
38264;SDS011;24062;47.480;8.768;2023-04-25T13:20:08;1.50;;;0.97;;
38264;SDS011;24062;47.480;8.768;2023-04-25T13:22:37;2.13;;;1.20;;
38264;SDS011;24062;47.480;8.768;2023-04-25T13:25:04;2.50;;;1.20;;
38264;SDS011;24062;47.480;8.768;2023-04-25T13:27:33;2.10;;;0.93;;
38264;SDS011;24062;47.480;8.768;2023-04-25T13:30:03;3.53;;;3.17;;
38264;SDS011;24062;47.480;8.768;2023-04-25T13:32:33;3.27;;;2.00;;
38264;SDS011;24062;47.480;8.768;2023-04-25T13:35:01;2.17;;;1.07;;
38264;SDS011;24062;47.480;8.768;2023-04-25T13:37:29;1.77;;;0.83;;
38264;SDS011;24062;47.480;8.768;2023-04-25T13:39:58;2.60;;;1.00;;
38264;SDS011;24062;47.480;8.768;2023-04-25T13:42:27;2.13;;;1.73;;
38264;SDS011;24062;47.480;8.768;2023-04-25T13:44:54;3.40;;;0.90;;
38264;SDS011;24062;47.480;8.768;2023-04-25T13:47:23;2.10;;;1.10;;
38264;SDS011;24062;47.480;8.768;2023-04-25T13:49:53;2.27;;;0.80;;
38264;SDS011;24062;47.480;8.768;2023-04-25T13:52:20;1.60;;;0.80;;
38264;SDS011;24062;47.480;8.768;2023-04-25T13:54:49;1.83;;;0.70;;
38264;SDS011;24062;47.480;8.768;2023-04-25T13:57:17;3.70;;;0.70;;
38264;SDS011;24062;47.480;8.768;2023-04-25T13:59:44;1.60;;;0.70;;
38264;SDS011;24062;47.480;8.768;2023-04-25T14:02:11;1.70;;;0.87;;
38264;SDS011;24062;47.480;8.768;2023-04-25T14:04:39;2.13;;;0.63;;
38264;SDS011;24062;47.480;8.768;2023-04-25T14:07:06;1.40;;;0.80;;
38264;SDS011;24062;47.480;8.768;2023-04-25T14:09:34;1.23;;;0.63;;
38264;SDS011;24062;47.480;8.768;2023-04-25T14:12:01;1.50;;;0.60;;
38264;SDS011;24062;47.480;8.768;2023-04-25T14:14:28;1.30;;;0.70;;
38264;SDS011;24062;47.480;8.768;2023-04-25T14:16:55;4.07;;;0.80;;
38264;SDS011;24062;47.480;8.768;2023-04-25T14:19:22;1.30;;;0.60;;
38264;SDS011;24062;47.480;8.768;2023-04-25T14:21:50;1.20;;;0.60;;
38264;SDS011;24062;47.480;8.768;2023-04-25T14:24:17;1.87;;;0.73;;
38264;SDS011;24062;47.480;8.768;2023-04-25T14:26:44;2.97;;;0.87;;
38264;SDS011;24062;47.480;8.768;2023-04-25T14:29:11;2.63;;;1.07;;
38264;SDS011;24062;47.480;8.768;2023-04-25T14:31:39;1.30;;;0.70;;
38264;SDS011;24062;47.480;8.768;2023-04-25T14:34:06;1.43;;;0.70;;
38264;SDS011;24062;47.480;8.768;2023-04-25T14:36:34;3.00;;;0.87;;
38264;SDS011;24062;47.480;8.768;2023-04-25T14:39:03;1.63;;;0.90;;
38264;SDS011;24062;47.480;8.768;2023-04-25T14:41:31;2.23;;;0.70;;
38264;SDS011;24062;47.480;8.768;2023-04-25T14:43:58;4.63;;;0.87;;
38264;SDS011;24062;47.480;8.768;2023-04-25T14:46:25;3.70;;;1.03;;
38264;SDS011;24062;47.480;8.768;2023-04-25T14:48:52;1.77;;;0.90;;
38264;SDS011;24062;47.480;8.768;2023-04-25T14:51:20;1.50;;;0.83;;